Time;durP1;ratioP1;P1;durP2;ratioP2;P2;SDS_P1;SDS_P2;PMS_P1;PMS_P2;Temp;Humidity;BMP_temperature;BMP_pressure;BME280_temperature;BME280_humidity;BME280_pressure;Samples;Min_cycle;Max_cycle;Signal;HPM_P1;HPM_P2
2023/09/19 00:01:12;;;;;;;0.80;0.50;;;;;;;23.33;51.74;99767.63;4512996;28;20021;-64
2023/09/19 00:03:22;;;;;;;0.88;0.60;;;;;;;23.36;51.79;99763.09;4496761;28;20102;-64
2023/09/19 00:05:44;;;;;;;0.70;0.60;;;;;;;23.31;51.61;99764.31;4514693;28;20036;-64
2023/09/19 00:07:58;;;;;;;0.57;0.50;;;;;;;23.35;51.69;99770.94;4515098;28;20042;-64
2023/09/19 00:10:09;;;;;;;0.88;0.50;;;;;;;23.34;51.67;99768.47;4514198;28;20544;-65
2023/09/19 00:12:20;;;;;;;1.38;0.60;;;;;;;23.32;51.61;99776.69;4514610;28;20125;-64
2023/09/19 00:14:33;;;;;;;0.52;0.50;;;;;;;23.33;51.26;99772.56;4498237;28;20854;-64
2023/09/19 00:16:44;;;;;;;1.33;0.60;;;;;;;23.34;51.36;99779.97;4515218;28;20025;-64
2023/09/19 00:18:55;;;;;;;1.27;0.70;;;;;;;23.33;51.41;99784.91;4514301;28;20046;-64
2023/09/19 00:21:05;;;;;;;0.60;0.50;;;;;;;23.33;51.03;99786.97;4513866;28;20120;-64
2023/09/19 00:23:16;;;;;;;0.40;0.40;;;;;;;23.34;51.23;99791.50;4514251;28;20026;-64
2023/09/19 00:25:26;;;;;;;1.13;0.50;;;;;;;23.33;51.12;99795.59;4513421;28;20591;-64
2023/09/19 00:27:43;;;;;;;0.70;0.50;;;;;;;23.35;51.34;99801.78;4499649;28;20846;-64
2023/09/19 00:29:54;;;;;;;0.68;0.50;;;;;;;23.33;51.31;99795.59;4513935;28;20105;-64
2023/09/19 00:32:06;;;;;;;1.17;0.60;;;;;;;23.32;51.32;99796.84;4505556;28;20044;-64
2023/09/19 00:34:17;;;;;;;0.77;0.50;;;;;;;23.33;51.08;99812.88;4514469;28;20603;-64
2023/09/19 00:36:29;;;;;;;0.93;0.65;;;;;;;23.32;51.10;99799.72;4515510;28;20033;-64
2023/09/19 00:38:39;;;;;;;0.50;0.50;;;;;;;23.32;51.27;99805.47;4497560;28;20038;-65
2023/09/19 00:40:53;;;;;;;0.65;0.60;;;;;;;23.31;51.19;99807.50;4504917;28;20037;-64
2023/09/19 00:43:05;;;;;;;1.08;0.75;;;;;;;23.32;50.96;99811.22;4512627;28;20141;-64
2023/09/19 00:45:18;;;;;;;0.50;0.50;;;;;;;23.30;50.87;99796.41;4502113;28;20164;-65
2023/09/19 00:47:29;;;;;;;0.77;0.60;;;;;;;23.23;51.13;99791.41;4500488;28;20153;-65
2023/09/19 00:49:40;;;;;;;0.85;0.65;;;;;;;23.29;50.66;99806.28;4500506;28;20047;-64
2023/09/19 00:51:51;;;;;;;0.57;0.57;;;;;;;23.31;50.43;99815.31;4514083;28;20097;-64
2023/09/19 00:54:02;;;;;;;0.93;0.60;;;;;;;23.29;50.65;99812.03;4497913;28;21400;-64
2023/09/19 00:56:14;;;;;;;1.00;0.65;;;;;;;23.30;50.31;99819.44;4514176;28;20049;-64
2023/09/19 00:58:25;;;;;;;0.55;0.55;;;;;;;23.29;50.40;99812.84;4514990;28;20045;-64
2023/09/19 01:00:37;;;;;;;1.50;0.60;;;;;;;23.30;50.12;99819.44;4497939;28;20037;-64
2023/09/19 01:02:48;;;;;;;0.70;0.60;;;;;;;23.23;50.01;99811.56;4512353;28;20084;-64
2023/09/19 01:05:04;;;;;;;1.00;0.60;;;;;;;23.26;50.07;99812.84;4513989;28;20036;-64
2023/09/19 01:07:15;;;;;;;1.20;0.80;;;;;;;23.11;49.67;99788.06;4510486;28;20048;-64
2023/09/19 01:09:26;;;;;;;1.55;0.70;;;;;;;23.24;49.57;99816.13;4512905;28;20030;-64
2023/09/19 01:11:47;;;;;;;1.50;0.60;;;;;;;23.25;49.50;99811.16;4514697;28;20041;-64
2023/09/19 01:14:28;;;;;;;0.57;0.52;;;;;;;23.28;49.16;99824.78;4495501;28;20029;-64
2023/09/19 01:16:53;;;;;;;1.85;0.70;;;;;;;23.27;48.97;99834.66;4505673;28;20085;-64
2023/09/19 01:19:39;;;;;;;0.50;0.50;;;;;;;23.28;49.01;99836.28;4512150;28;20911;-64
2023/09/19 01:22:12;;;;;;;1.13;0.70;;;;;;;23.24;48.73;99827.63;4514191;28;20037;-65
2023/09/19 01:24:53;;;;;;;0.80;0.50;;;;;;;23.26;48.95;99833.00;4498632;28;20066;-65
2023/09/19 01:27:22;;;;;;;1.08;0.70;;;;;;;23.28;49.15;99839.16;4496460;28;20060;-64
2023/09/19 01:29:44;;;;;;;1.50;0.80;;;;;;;23.25;48.92;99837.06;4511969;28;20097;-64
2023/09/19 01:31:59;;;;;;;1.05;0.60;;;;;;;23.26;49.05;99848.22;4514119;28;20116;-64
2023/09/19 01:34:09;;;;;;;1.27;0.60;;;;;;;23.26;49.17;99848.22;4512689;28;20040;-64
2023/09/19 01:36:19;;;;;;;0.68;0.60;;;;;;;23.22;49.23;99843.63;4483139;28;20388;-64
2023/09/19 01:38:32;;;;;;;0.85;0.63;;;;;;;23.27;49.11;99851.94;4511956;28;20084;-65
2023/09/19 01:40:48;;;;;;;1.27;0.70;;;;;;;23.25;49.05;99845.72;4513444;28;20065;-64
2023/09/19 01:43:05;;;;;;;1.02;0.50;;;;;;;23.25;49.12;99849.44;4512113;28;20030;-64
2023/09/19 01:45:38;;;;;;;1.00;0.50;;;;;;;23.26;49.15;99856.03;4499909;28;20046;-64
2023/09/19 01:47:55;;;;;;;0.70;0.60;;;;;;;23.23;49.03;99854.75;4511560;28;20076;-64
2023/09/19 01:50:31;;;;;;;1.23;0.70;;;;;;;23.25;48.73;99851.47;4514176;28;20072;-64
2023/09/19 01:53:04;;;;;;;0.98;0.70;;;;;;;23.22;48.61;99858.88;4514071;28;20192;-64
2023/09/19 01:55:17;;;;;;;0.88;0.60;;;;;;;23.22;48.61;99860.91;4512951;28;20038;-64
2023/09/19 01:57:32;;;;;;;1.50;0.65;;;;;;;23.25;48.58;99868.75;4512571;28;20033;-65
2023/09/19 01:59:52;;;;;;;1.50;0.40;;;;;;;23.25;48.25;99874.50;4504262;28;20042;-64
2023/09/19 02:02:05;;;;;;;1.13;0.65;;;;;;;23.19;48.16;99870.34;4504529;28;20995;-64
2023/09/19 02:04:15;;;;;;;0.60;0.60;;;;;;;23.18;48.16;99874.47;4505425;28;20042;-65
2023/09/19 02:06:26;;;;;;;1.17;0.70;;;;;;;23.22;48.05;99881.06;4497731;28;20042;-64
2023/09/19 02:08:37;;;;;;;1.25;0.80;;;;;;;23.15;47.55;99881.84;4513794;28;20030;-64
2023/09/19 02:10:48;;;;;;;1.02;0.55;;;;;;;23.22;47.87;99886.81;4506182;28;20037;-64
2023/09/19 02:13:00;;;;;;;1.73;0.80;;;;;;;23.18;47.64;99889.69;4504245;28;20487;-64
2023/09/19 02:15:10;;;;;;;1.33;0.50;;;;;;;23.22;47.64;99893.41;4487646;28;20034;-64
2023/09/19 02:17:21;;;;;;;1.55;0.50;;;;;;;23.21;47.69;99896.69;4513752;28;20034;-65
2023/09/19 02:19:32;;;;;;;1.77;0.60;;;;;;;23.20;47.59;99895.88;4513770;28;20594;-64
2023/09/19 02:21:43;;;;;;;0.82;0.70;;;;;;;23.18;47.47;99897.50;4514950;28;20096;-64
2023/09/19 02:23:53;;;;;;;1.83;0.70;;;;;;;23.17;47.33;99895.84;4512351;28;20556;-64
2023/09/19 02:26:04;;;;;;;1.35;0.55;;;;;;;23.22;47.36;99907.81;4512943;28;20589;-63
2023/09/19 02:28:14;;;;;;;1.42;0.60;;;;;;;23.18;47.39;99906.94;4512635;28;20052;-64
2023/09/19 02:30:25;;;;;;;1.50;0.70;;;;;;;23.16;47.52;99889.28;4513431;28;20529;-64
2023/09/19 02:32:38;;;;;;;0.90;0.50;;;;;;;23.20;47.46;99900.78;4498758;28;20044;-64
2023/09/19 02:34:51;;;;;;;1.63;0.75;;;;;;;23.18;47.17;99904.06;4511906;28;20038;-64
2023/09/19 02:37:06;;;;;;;1.90;0.95;;;;;;;23.20;47.35;99904.50;4500668;28;20046;-64
2023/09/19 02:39:16;;;;;;;1.27;0.60;;;;;;;23.17;47.09;99896.69;4515108;28;20115;-64
2023/09/19 02:41:29;;;;;;;1.55;0.70;;;;;;;23.18;47.14;99901.19;4516126;28;20041;-64
2023/09/19 02:43:39;;;;;;;0.98;0.60;;;;;;;23.16;46.87;99899.97;4507675;28;20046;-64
2023/09/19 02:45:50;;;;;;;1.30;0.65;;;;;;;23.18;46.96;99904.06;4499698;28;20041;-64
2023/09/19 02:48:02;;;;;;;2.45;0.70;;;;;;;23.17;47.00;99908.19;4507809;28;20081;-64
2023/09/19 02:50:15;;;;;;;2.15;0.60;;;;;;;23.18;47.23;99904.06;4497365;28;20146;-64
2023/09/19 02:52:26;;;;;;;1.25;0.60;;;;;;;23.17;47.13;99896.69;4513656;28;20034;-64
2023/09/19 02:54:37;;;;;;;1.20;0.60;;;;;;;23.16;46.85;99895.03;4503327;28;20034;-64
2023/09/19 02:56:47;;;;;;;1.00;0.50;;;;;;;23.17;46.84;99905.31;4516190;28;20034;-64
2023/09/19 02:59:00;;;;;;;1.23;0.60;;;;;;;23.18;46.80;99906.94;4516420;28;20478;-64
2023/09/19 03:01:14;;;;;;;1.05;0.60;;;;;;;23.17;47.00;99910.22;4515346;28;20034;-64
2023/09/19 03:03:25;;;;;;;0.98;0.60;;;;;;;23.01;46.88;99883.81;4513966;28;20026;-64
2023/09/19 03:05:38;;;;;;;0.77;0.55;;;;;;;23.12;47.07;99905.69;4514971;28;20042;-64
2023/09/19 03:07:50;;;;;;;0.85;0.50;;;;;;;23.17;47.01;99913.94;4515667;28;20048;-64
2023/09/19 03:10:01;;;;;;;1.42;0.50;;;;;;;23.13;46.70;99912.28;4497813;28;20041;-64
2023/09/19 03:12:14;;;;;;;1.27;0.57;;;;;;;23.14;46.95;99908.16;4501787;28;20037;-64
2023/09/19 03:14:25;;;;;;;1.40;0.60;;;;;;;23.16;46.60;99925.88;4506197;28;20125;-64
2023/09/19 03:16:37;;;;;;;2.13;0.70;;;;;;;23.11;46.58;99915.56;4514260;28;20117;-64
2023/09/19 03:18:51;;;;;;;1.92;0.75;;;;;;;23.13;46.50;99921.75;4499611;28;20039;-64
2023/09/19 03:21:01;;;;;;;1.90;0.60;;;;;;;23.16;46.34;99923.00;4507264;28;20597;-64
2023/09/19 03:23:13;;;;;;;1.08;0.52;;;;;;;23.14;46.29;99926.28;4483563;28;20049;-63
2023/09/19 03:25:24;;;;;;;1.17;0.60;;;;;;;23.11;46.10;99921.31;4505821;28;20033;-64
2023/09/19 03:27:35;;;;;;;1.25;0.70;;;;;;;23.15;46.36;99935.75;4499784;28;20050;-64
2023/09/19 03:29:47;;;;;;;1.33;0.55;;;;;;;23.13;46.07;99930.38;4500327;28;20372;-64
2023/09/19 03:31:57;;;;;;;1.15;0.60;;;;;;;23.10;45.96;99930.34;4507176;28;20048;-64
2023/09/19 03:34:08;;;;;;;1.38;0.63;;;;;;;23.08;46.15;99925.00;4503489;28;20510;-64
2023/09/19 03:36:19;;;;;;;1.08;0.60;;;;;;;23.13;46.02;99930.38;4499153;28;20063;-64
2023/09/19 03:38:29;;;;;;;1.45;0.65;;;;;;;23.11;45.93;99937.75;4502415;28;20031;-64
2023/09/19 03:40:40;;;;;;;1.27;0.60;;;;;;;23.09;45.91;99931.56;4507499;28;20045;-64
2023/09/19 03:42:50;;;;;;;1.02;0.50;;;;;;;23.07;45.76;99928.28;4498682;28;20062;-64
2023/09/19 03:45:05;;;;;;;1.67;0.68;;;;;;;23.06;45.80;99933.19;4514378;28;20034;-64
2023/09/19 03:47:16;;;;;;;2.45;0.73;;;;;;;23.07;45.53;99931.16;4499598;28;20116;-64
2023/09/19 03:49:27;;;;;;;1.73;0.70;;;;;;;23.12;45.53;99939.44;4505898;28;20038;-64
2023/09/19 03:51:37;;;;;;;1.23;0.60;;;;;;;23.12;45.17;99945.97;4512329;28;20030;-64
2023/09/19 03:53:51;;;;;;;1.13;0.70;;;;;;;23.10;45.31;99936.91;4485895;28;20027;-64
2023/09/19 03:56:02;;;;;;;1.02;0.60;;;;;;;23.10;45.04;99936.91;4495812;28;20049;-64
2023/09/19 03:58:15;;;;;;;1.70;0.60;;;;;;;23.06;44.84;99938.13;4505917;28;20174;-64
2023/09/19 04:00:26;;;;;;;2.13;0.70;;;;;;;23.12;44.68;99942.31;4500219;28;20129;-64
2023/09/19 04:02:38;;;;;;;1.25;0.63;;;;;;;23.13;44.71;99941.06;4515411;28;20042;-64
2023/09/19 04:04:49;;;;;;;0.93;0.50;;;;;;;23.10;44.63;99928.28;4500772;28;20053;-64
2023/09/19 04:06:59;;;;;;;1.70;0.80;;;;;;;23.11;44.75;99926.25;4501387;28;20211;-64
2023/09/19 04:09:11;;;;;;;0.60;0.50;;;;;;;23.13;44.29;99935.31;4505068;28;20553;-64
2023/09/19 04:11:22;;;;;;;1.38;0.60;;;;;;;23.11;44.25;99932.81;4485690;28;20038;-64
2023/09/19 04:13:33;;;;;;;1.23;0.65;;;;;;;23.07;43.95;99920.44;4514396;28;20030;-64
2023/09/19 04:15:43;;;;;;;1.67;0.70;;;;;;;23.09;43.80;99928.69;4499519;28;20042;-64
2023/09/19 04:17:53;;;;;;;2.08;0.60;;;;;;;23.09;44.06;99934.44;4497605;28;20391;-64
2023/09/19 04:20:06;;;;;;;1.27;0.50;;;;;;;23.06;43.79;99932.38;4515736;28;20116;-64
2023/09/19 04:22:17;;;;;;;0.80;0.52;;;;;;;23.10;43.53;99944.75;4498760;28;20118;-64
2023/09/19 04:24:27;;;;;;;1.15;0.60;;;;;;;23.07;44.60;99937.72;4513627;28;20109;-64
2023/09/19 04:26:38;;;;;;;1.30;0.60;;;;;;;23.02;43.90;99938.13;4500506;28;20047;-64
2023/09/19 04:28:49;;;;;;;2.55;0.80;;;;;;;23.06;44.01;99941.84;4514621;28;20073;-64
2023/09/19 04:31:02;;;;;;;1.58;0.70;;;;;;;23.06;43.93;99947.59;4501167;28;20485;-64
2023/09/19 04:33:14;;;;;;;1.45;0.60;;;;;;;23.05;43.89;99945.13;4484045;28;20070;-64
2023/09/19 04:35:26;;;;;;;0.90;0.45;;;;;;;23.10;43.79;99956.25;4514196;28;20578;-64
2023/09/19 04:37:39;;;;;;;1.30;0.88;;;;;;;23.09;43.99;99954.59;4515336;28;20046;-65
2023/09/19 04:39:49;;;;;;;1.75;0.73;;;;;;;23.07;43.79;99959.94;4513276;28;20137;-64
2023/09/19 04:41:59;;;;;;;1.98;0.60;;;;;;;23.08;43.62;99948.03;4513936;28;20887;-64
2023/09/19 04:44:10;;;;;;;1.15;0.60;;;;;;;23.07;43.85;99954.19;4514123;28;20108;-63
2023/09/19 04:46:20;;;;;;;2.22;0.70;;;;;;;23.06;43.70;99949.63;4513177;28;20683;-64
2023/09/19 04:48:31;;;;;;;1.05;0.55;;;;;;;23.03;43.95;99941.81;4513792;28;20418;-64
2023/09/19 04:50:42;;;;;;;1.15;0.70;;;;;;;23.05;43.65;99948.84;4511828;28;20081;-64
2023/09/19 04:52:53;;;;;;;1.40;0.77;;;;;;;23.06;43.32;99964.03;4499762;28;20120;-65
2023/09/19 04:55:04;;;;;;;0.73;0.63;;;;;;;23.05;43.08;99973.91;4505616;28;20096;-64
2023/09/19 04:57:15;;;;;;;1.23;0.60;;;;;;;23.04;43.37;99972.25;4514764;28;20029;-64
2023/09/19 04:59:26;;;;;;;2.17;0.80;;;;;;;23.06;43.48;99984.19;4496981;28;20045;-64
2023/09/19 05:01:36;;;;;;;1.13;0.60;;;;;;;23.04;43.33;99983.78;4514324;28;20506;-64
2023/09/19 05:03:52;;;;;;;1.33;0.60;;;;;;;23.03;42.96;99985.81;4513989;28;20060;-64
2023/09/19 05:06:03;;;;;;;2.17;0.70;;;;;;;23.05;43.04;99979.66;4514112;28;20052;-64
2023/09/19 05:08:14;;;;;;;1.52;0.68;;;;;;;22.99;42.44;99978.38;4514576;28;20039;-64
2023/09/19 05:10:25;;;;;;;2.15;0.80;;;;;;;23.05;42.41;99999.81;4514723;28;20125;-64
2023/09/19 05:12:36;;;;;;;1.20;0.60;;;;;;;23.04;42.68;100001.84;4514243;28;20481;-64
2023/09/19 05:14:46;;;;;;;2.05;0.75;;;;;;;22.99;42.68;99996.44;4511827;28;20033;-64
2023/09/19 05:16:56;;;;;;;2.65;0.95;;;;;;;22.96;42.68;99988.63;4504121;28;20089;-64
2023/09/19 05:19:07;;;;;;;1.73;0.60;;;;;;;;;;4511958;28;20049;-64
2023/09/19 05:21:18;;;;;;;1.45;0.70;;;;;;;23.05;42.44;100002.69;4513229;28;20038;-64
2023/09/19 05:23:29;;;;;;;2.33;0.90;;;;;;;22.99;42.52;100001.41;4513755;28;21088;-64
2023/09/19 05:25:40;;;;;;;1.08;0.63;;;;;;;23.03;42.28;100005.13;4512633;28;20049;-71
2023/09/19 05:27:53;;;;;;;1.17;0.50;;;;;;;22.97;42.09;100001.81;4512236;28;20037;-64
2023/09/19 05:30:04;;;;;;;1.33;0.60;;;;;;;23.03;42.13;100011.72;4495214;28;20045;-64
2023/09/19 05:32:15;;;;;;;2.35;0.75;;;;;;;23.02;42.29;100010.06;4495955;28;20057;-64
2023/09/19 05:34:30;;;;;;;1.45;0.60;;;;;;;23.00;42.54;100000.16;4498710;28;20046;-64
2023/09/19 05:36:40;;;;;;;1.33;0.73;;;;;;;23.01;42.15;100014.16;4494505;28;20054;-64
2023/09/19 05:38:52;;;;;;;1.00;0.70;;;;;;;22.98;42.23;100008.38;4512899;28;20034;-64
2023/09/19 05:41:03;;;;;;;3.30;0.80;;;;;;;22.94;42.26;100005.47;4512209;28;20929;-64
2023/09/19 05:43:14;;;;;;;1.30;0.70;;;;;;;23.00;42.00;100026.06;4513401;28;20064;-64
2023/09/19 05:45:25;;;;;;;0.98;0.60;;;;;;;23.01;42.02;100033.47;4512956;28;20727;-64
2023/09/19 05:47:36;;;;;;;0.95;0.60;;;;;;;23.00;42.13;100034.72;4503805;28;20049;-64
2023/09/19 05:49:48;;;;;;;1.98;0.70;;;;;;;23.00;42.20;100034.72;4513035;28;20029;-64
2023/09/19 05:51:59;;;;;;;1.33;0.70;;;;;;;22.97;42.17;100032.63;4502654;28;20042;-64
2023/09/19 05:54:10;;;;;;;1.25;0.60;;;;;;;23.00;42.31;100043.34;4512059;28;20026;-64
2023/09/19 05:56:21;;;;;;;1.52;0.70;;;;;;;22.98;42.23;100043.75;4497963;28;20541;-64
2023/09/19 05:58:31;;;;;;;1.15;0.63;;;;;;;23.01;42.21;100062.25;4514561;28;20096;-64
2023/09/19 06:00:44;;;;;;;1.40;0.65;;;;;;;22.96;42.37;100045.38;4513045;28;20025;-64
2023/09/19 06:02:56;;;;;;;0.93;0.50;;;;;;;23.00;42.19;100057.72;4512517;28;20060;-64
2023/09/19 06:05:10;;;;;;;1.58;0.82;;;;;;;23.00;43.94;100058.56;4512956;28;20124;-64
2023/09/19 06:07:26;;;;;;;1.60;0.65;;;;;;;22.94;44.34;100059.31;4500972;28;20041;-65
2023/09/19 06:09:36;;;;;;;0.90;0.50;;;;;;;22.99;44.83;100056.09;4513709;28;20858;-64
2023/09/19 06:11:46;;;;;;;1.25;0.63;;;;;;;23.00;45.10;100064.31;4510887;28;20303;-64
2023/09/19 06:13:57;;;;;;;0.52;0.50;;;;;;;23.02;47.16;100067.66;4512454;28;20038;-64
2023/09/19 06:16:09;;;;;;;1.05;0.50;;;;;;;23.01;47.25;100068.84;4512556;28;20037;-64
2023/09/19 06:18:19;;;;;;;1.52;0.60;;;;;;;23.04;46.36;100078.75;4512900;28;20042;-64
2023/09/19 06:20:31;;;;;;;0.98;0.50;;;;;;;23.03;48.28;100079.97;4512476;28;20475;-64
2023/09/19 06:22:42;;;;;;;1.85;0.75;;;;;;;22.97;46.58;100062.25;4513048;28;20033;-64
2023/09/19 06:24:53;;;;;;;1.27;0.60;;;;;;;23.01;45.73;100073.78;4512480;28;20037;-63
2023/09/19 06:27:04;;;;;;;1.35;0.70;;;;;;;22.99;46.65;100068.41;4512404;28;20518;-63
2023/09/19 06:29:14;;;;;;;1.73;0.65;;;;;;;23.00;45.24;100063.50;4512781;28;20077;-63
2023/09/19 06:31:26;;;;;;;1.17;0.60;;;;;;;23.01;45.09;100059.38;4513483;28;20447;-63
2023/09/19 06:33:40;;;;;;;1.92;0.63;;;;;;;22.99;45.72;100061.84;4513295;28;20021;-63
2023/09/19 06:35:57;;;;;;;1.60;0.50;;;;;;;22.99;45.56;100056.09;4512810;28;20058;-64
2023/09/19 06:38:07;;;;;;;0.77;0.60;;;;;;;23.01;47.02;100070.88;4511668;28;20065;-63
2023/09/19 06:40:19;;;;;;;0.57;0.50;;;;;;;22.99;46.05;100067.59;4510441;28;20475;-63
2023/09/19 06:42:29;;;;;;;2.65;0.70;;;;;;;22.98;46.25;100066.78;4498433;28;20817;-64
2023/09/19 06:44:40;;;;;;;1.30;0.40;;;;;;;23.00;45.85;100069.25;4512404;28;20028;-63
2023/09/19 06:46:51;;;;;;;1.40;0.60;;;;;;;23.00;46.88;100064.31;4503438;28;20040;-63
2023/09/19 06:49:06;;;;;;;1.23;0.47;;;;;;;22.99;45.65;100070.47;4511742;28;20044;-63
2023/09/19 06:51:16;;;;;;;0.93;0.60;;;;;;;23.00;46.70;100075.00;4512575;28;20034;-63
2023/09/19 06:53:27;;;;;;;3.15;0.75;;;;;;;22.98;45.51;100071.69;4512497;28;20074;-63
2023/09/19 06:55:37;;;;;;;0.98;0.60;;;;;;;22.99;45.41;100077.03;4511597;28;20103;-63
2023/09/19 06:57:48;;;;;;;1.73;0.60;;;;;;;22.96;46.27;100071.28;4512505;28;20036;-63
2023/09/19 06:59:58;;;;;;;1.52;0.47;;;;;;;22.99;45.88;100076.25;4512027;28;20030;-63
2023/09/19 07:02:09;;;;;;;1.45;0.50;;;;;;;23.00;46.65;100087.34;4511522;28;20129;-63
2023/09/19 07:04:19;;;;;;;1.08;0.50;;;;;;;22.98;44.53;100074.56;4511494;28;20018;-67
2023/09/19 07:06:30;;;;;;;2.00;0.70;;;;;;;22.98;45.16;100074.56;4510903;28;20045;-63
2023/09/19 07:08:40;;;;;;;0.95;0.50;;;;;;;22.99;45.71;100077.03;4496802;28;20028;-64
2023/09/19 07:10:52;;;;;;;1.38;0.70;;;;;;;22.96;44.98;100074.97;4512600;28;20045;-64
2023/09/19 07:13:06;;;;;;;1.80;0.50;;;;;;;23.00;44.07;100072.13;4512110;28;20034;-65
2023/09/19 07:15:16;;;;;;;1.08;0.50;;;;;;;22.98;44.87;100065.94;4510904;28;20588;-63
2023/09/19 07:17:27;;;;;;;0.80;0.50;;;;;;;22.99;45.71;100088.56;4498108;28;20033;-63
2023/09/19 07:19:37;;;;;;;2.15;0.65;;;;;;;22.98;44.54;100092.66;4510886;28;20030;-64
2023/09/19 07:21:50;;;;;;;0.88;0.40;;;;;;;22.96;45.25;100077.03;4513761;28;20038;-64
2023/09/19 07:24:00;;;;;;;0.90;0.50;;;;;;;22.98;44.54;100088.97;4513935;28;20113;-64
2023/09/19 07:26:11;;;;;;;1.20;0.60;;;;;;;22.98;44.17;100091.84;4514344;28;20042;-64
2023/09/19 07:28:22;;;;;;;1.35;0.68;;;;;;;22.99;44.92;100096.38;4515093;28;20141;-64
2023/09/19 07:30:37;;;;;;;1.88;0.85;;;;;;;23.00;44.60;100098.03;4514172;28;20020;-64
2023/09/19 07:32:48;;;;;;;1.17;0.70;;;;;;;23.00;44.75;100112.41;4515541;28;20044;-64
2023/09/19 07:34:59;;;;;;;1.73;0.70;;;;;;;22.98;45.01;100117.75;4514746;28;20037;-64
2023/09/19 07:37:09;;;;;;;1.48;0.70;;;;;;;22.97;43.69;100111.19;4499535;28;20038;-64
2023/09/19 07:39:20;;;;;;;1.30;0.60;;;;;;;22.97;44.35;100110.34;4482442;28;20029;-64
2023/09/19 07:41:30;;;;;;;0.98;0.60;;;;;;;23.01;44.38;100116.94;4496453;28;20715;-64
2023/09/19 07:43:41;;;;;;;1.83;0.70;;;;;;;22.99;44.57;100119.41;4500808;28;20049;-64
2023/09/19 07:45:51;;;;;;;2.15;0.70;;;;;;;23.02;44.33;100115.75;4513893;28;20029;-64
2023/09/19 07:48:04;;;;;;;1.27;0.60;;;;;;;23.03;44.32;100120.25;4514749;28;20192;-64
2023/09/19 07:50:19;;;;;;;1.52;0.70;;;;;;;23.01;44.40;100111.19;4505972;28;20042;-64
2023/09/19 07:52:29;;;;;;;1.35;0.60;;;;;;;23.06;44.19;100125.22;4515277;28;21232;-65
2023/09/19 07:54:41;;;;;;;0.90;0.60;;;;;;;23.07;43.87;100121.16;4514842;28;20042;-64
2023/09/19 07:56:51;;;;;;;1.92;0.63;;;;;;;23.04;43.63;100116.19;4498682;28;20040;-65
2023/09/19 07:59:02;;;;;;;1.33;0.70;;;;;;;23.07;43.98;100109.63;4513332;28;20042;-64
2023/09/19 08:01:14;;;;;;;1.52;0.70;;;;;;;23.02;43.81;100110.81;4515851;28;20398;-64
2023/09/19 08:03:24;;;;;;;1.67;0.77;;;;;;;23.07;43.61;100121.94;4515355;28;20029;-64
2023/09/19 08:05:36;;;;;;;1.38;0.75;;;;;;;23.02;43.42;100127.25;4512817;28;20030;-64
2023/09/19 08:07:49;;;;;;;1.95;0.77;;;;;;;23.07;42.96;100119.06;4513477;28;20034;-64
2023/09/19 08:10:00;;;;;;;1.33;0.60;;;;;;;23.05;43.35;100124.41;4513781;28;20776;-64
2023/09/19 08:12:11;;;;;;;1.77;0.70;;;;;;;23.02;43.57;100121.50;4514586;28;20034;-64
2023/09/19 08:14:24;;;;;;;1.50;0.65;;;;;;;23.05;43.72;100106.31;4513861;28;20679;-64
2023/09/19 08:16:35;;;;;;;1.65;0.85;;;;;;;23.02;43.27;100112.88;4513639;28;20785;-64
2023/09/19 08:18:48;;;;;;;1.33;0.70;;;;;;;23.03;43.42;100126.84;4516259;28;20029;-64
2023/09/19 08:21:00;;;;;;;1.23;0.60;;;;;;;23.03;43.33;100126.84;4498842;28;20030;-64
2023/09/19 08:23:10;;;;;;;1.52;0.70;;;;;;;23.04;43.44;100119.88;4497347;28;20897;-64
2023/09/19 08:25:21;;;;;;;1.92;0.70;;;;;;;23.05;43.68;100123.59;4515468;28;20026;-63
2023/09/19 08:27:32;;;;;;;1.27;0.70;;;;;;;23.02;43.87;100125.22;4513250;28;20112;-64
2023/09/19 08:29:43;;;;;;;1.95;0.60;;;;;;;23.00;43.74;100104.63;4513997;28;20358;-64
2023/09/19 08:31:57;;;;;;;1.20;0.60;;;;;;;23.03;43.77;100115.34;4513102;28;20044;-65
2023/09/19 08:34:07;;;;;;;1.38;0.63;;;;;;;23.04;43.91;100119.06;4513892;28;20037;-64
2023/09/19 08:36:18;;;;;;;1.35;0.50;;;;;;;22.98;44.18;100097.59;4500014;28;20038;-64
2023/09/19 08:38:29;;;;;;;1.30;0.70;;;;;;;23.01;43.78;100119.81;4514225;28;20367;-65
2023/09/19 08:40:41;;;;;;;1.02;0.60;;;;;;;23.02;43.98;100121.50;4514026;28;20040;-64
2023/09/19 08:42:55;;;;;;;1.25;0.70;;;;;;;23.00;44.20;100121.06;4513278;28;20088;-65
2023/09/19 08:45:06;;;;;;;2.28;0.82;;;;;;;22.93;44.07;100109.50;4513138;28;20121;-64
2023/09/19 08:47:23;;;;;;;2.10;0.70;;;;;;;23.00;44.07;100119.03;4513848;28;20103;-64
2023/09/19 08:50:02;;;;;;;1.17;0.70;;;;;;;23.02;44.67;100130.97;4514083;28;20086;-64
2023/09/19 08:52:25;;;;;;;;;;;;;;;23.02;44.18;100133.84;4514419;28;20045;-64
2023/09/19 08:54:39;;;;;;;1.52;0.75;;;;;;;23.03;44.19;100131.78;4512861;28;21224;-63
2023/09/19 08:56:51;;;;;;;2.78;1.00;;;;;;;23.01;44.16;100132.19;4514304;28;20080;-65
2023/09/19 08:59:07;;;;;;;1.23;0.68;;;;;;;22.95;44.12;100139.50;4514794;28;20918;-64
2023/09/19 09:01:27;;;;;;;1.48;0.70;;;;;;;22.94;44.44;100142.78;4513723;28;20897;-66
2023/09/19 09:03:41;;;;;;;1.20;0.80;;;;;;;22.86;44.32;100144.78;4512665;28;20093;-65
2023/09/19 09:05:52;;;;;;;1.02;0.63;;;;;;;22.84;44.59;100134.84;4512659;28;20223;-65
2023/09/19 09:08:05;;;;;;;1.95;0.70;;;;;;;22.81;44.91;100152.91;4513144;28;20042;-66
2023/09/19 09:10:16;;;;;;;2.13;1.00;;;;;;;22.81;44.81;100152.91;4513567;28;20044;-64
2023/09/19 09:12:27;;;;;;;2.65;1.00;;;;;;;22.80;44.60;100145.50;4512552;28;20041;-64
2023/09/19 09:14:38;;;;;;;1.42;0.80;;;;;;;22.78;44.46;100136.44;4513765;28;20041;-64
2023/09/19 09:16:48;;;;;;;0.98;0.60;;;;;;;22.75;44.38;100134.34;4513269;28;21183;-64
2023/09/19 09:18:59;;;;;;;2.88;0.80;;;;;;;22.82;44.53;100143.03;4512972;28;20037;-64
2023/09/19 09:21:10;;;;;;;1.40;0.80;;;;;;;22.82;44.73;100141.00;4513811;28;20030;-64
2023/09/19 09:23:21;;;;;;;1.05;0.60;;;;;;;22.86;44.14;100143.94;4513493;28;20406;-65
2023/09/19 09:25:56;;;;;;;1.63;0.70;;;;;;;22.84;44.19;100146.38;4514168;28;20029;-65
2023/09/19 09:28:07;;;;;;;1.30;0.63;;;;;;;22.89;43.99;100146.03;4512985;28;20042;-63
2023/09/19 09:30:35;;;;;;;2.10;0.80;;;;;;;22.90;44.09;100156.28;4513813;28;20037;-63
2023/09/19 09:32:45;;;;;;;3.03;0.77;;;;;;;22.91;44.06;100146.47;4513293;28;20029;-66
2023/09/19 09:35:00;;;;;;;2.10;0.77;;;;;;;22.93;43.70;100162.09;4513209;28;20045;-65
2023/09/19 09:37:19;;;;;;;0.93;0.52;;;;;;;22.90;44.42;100153.41;4512893;28;20874;-65
2023/09/19 09:39:31;;;;;;;1.88;0.70;;;;;;;22.86;44.18;100150.53;4504740;28;20037;-63
2023/09/19 09:41:43;;;;;;;1.30;0.70;;;;;;;22.92;44.07;100154.69;4513354;28;20041;-64
2023/09/19 09:43:59;;;;;;;0.95;0.60;;;;;;;22.94;43.82;100148.53;4513641;28;20037;-63
2023/09/19 09:48:32;;;;;;;1.75;0.70;;;;;;;22.89;43.52;100143.13;4514251;28;20080;-63
2023/09/19 09:53:06;;;;;;;1.10;0.60;;;;;;;22.94;43.49;100148.53;4498278;28;20125;-66
2023/09/19 09:55:20;;;;;;;1.73;0.70;;;;;;;;;;4498199;28;20081;-65
2023/09/19 09:57:31;;;;;;;1.48;0.70;;;;;;;22.93;43.59;100149.78;4505034;28;20834;-65
2023/09/19 09:59:49;;;;;;;1.27;0.70;;;;;;;22.92;43.97;100148.09;4489041;28;20043;-65
2023/09/19 10:02:02;;;;;;;1.65;0.70;;;;;;;22.94;43.77;100149.38;4488736;28;20027;-65
2023/09/19 10:04:29;;;;;;;1.40;0.70;;;;;;;22.89;43.61;100143.13;4480724;28;20039;-67
2023/09/19 10:06:46;;;;;;;1.17;0.60;;;;;;;22.94;43.36;100145.66;4494724;28;20603;-66
2023/09/19 10:11:30;;;;;;;1.17;0.68;;;;;;;22.91;43.69;100137.81;4509278;28;20877;-64
2023/09/19 10:13:42;;;;;;;1.38;0.88;;;;;;;22.94;43.17;100135.00;4493739;28;20041;-63
2023/09/19 10:15:54;;;;;;;0.98;0.70;;;;;;;22.84;43.04;100123.34;4480437;28;21354;-66
2023/09/19 10:18:08;;;;;;;1.30;0.95;;;;;;;22.86;43.01;100126.66;4511990;28;20044;-65
2023/09/19 10:20:32;;;;;;;1.35;0.98;;;;;;;22.94;43.28;100146.50;4498214;28;20972;-65
2023/09/19 10:22:57;;;;;;;1.77;0.85;;;;;;;22.92;42.91;100142.34;4504412;28;20042;-65
2023/09/19 10:25:08;;;;;;;1.38;0.93;;;;;;;22.92;42.96;100136.59;4512977;28;20955;-65
2023/09/19 10:27:20;;;;;;;1.50;0.85;;;;;;;22.94;42.78;100134.16;4497782;28;20687;-64
2023/09/19 10:29:36;;;;;;;1.23;0.70;;;;;;;22.89;43.06;100131.63;4505383;28;20111;-66
2023/09/19 10:31:53;;;;;;;0.60;0.55;;;;;;;22.92;43.05;100133.72;4497332;28;20049;-66